createdAt,value
2019-02-21T00:01:25.981Z,95613.19
2019-02-21T00:03:52.301Z,95609.90
2019-02-21T00:06:18.654Z,95614.67
2019-02-21T00:08:45.023Z,95612.09
2019-02-21T00:11:11.368Z,95606.95
2019-02-21T00:13:37.706Z,95602.13
2019-02-21T00:16:04.166Z,95601.75
2019-02-21T00:18:30.605Z,95603.41
2019-02-21T00:20:56.890Z,95602.58
2019-02-21T00:23:23.270Z,95602.32
2019-02-21T00:25:49.607Z,95604.06
2019-02-21T00:28:17.868Z,95599.83
2019-02-21T00:30:42.266Z,95595.14
2019-02-21T00:33:08.627Z,95594.31
2019-02-21T00:35:34.981Z,95592.77
2019-02-21T00:38:01.294Z,95591.28
2019-02-21T00:40:27.618Z,95599.20
2019-02-21T00:42:53.983Z,95595.80
2019-02-21T00:45:20.310Z,95597.20
2019-02-21T00:47:46.681Z,95597.66
2019-02-21T00:50:13.096Z,95598.31
2019-02-21T00:52:39.533Z,95594.53
2019-02-21T00:55:05.870Z,95594.53
2019-02-21T00:57:32.200Z,95597.59
2019-02-21T00:59:58.565Z,95588.67
2019-02-21T01:02:24.930Z,95587.39
2019-02-21T01:04:51.263Z,95589.05
2019-02-21T01:07:17.601Z,95588.85
2019-02-21T01:09:44.146Z,95580.59
2019-02-21T01:12:10.476Z,95579.98
2019-02-21T01:14:36.809Z,95585.41
2019-02-21T01:17:03.143Z,95577.69
2019-02-21T01:19:29.488Z,95575.31
2019-02-21T01:21:55.861Z,95570.89
2019-02-21T01:24:22.228Z,95572.44
2019-02-21T01:26:48.568Z,95576.78
2019-02-21T01:29:16.549Z,95581.53
2019-02-21T01:31:45.339Z,95576.73
2019-02-21T01:34:09.269Z,95576.84
2019-02-21T01:36:35.644Z,95572.67
2019-02-21T01:39:01.987Z,95569.95
2019-02-21T01:41:28.405Z,95566.24
2019-02-21T01:43:54.717Z,95568.45
2019-02-21T01:46:21.075Z,95569.73
2019-02-21T01:48:47.455Z,95576.50
2019-02-21T01:51:13.797Z,95574.59
2019-02-21T01:53:40.127Z,95571.02
2019-02-21T01:56:06.504Z,95573.10
2019-02-21T01:58:33.002Z,95570.39
2019-02-21T02:01:07.872Z,95564.59
2019-02-21T02:03:25.791Z,95567.67
2019-02-21T02:05:52.130Z,95568.45
2019-02-21T02:08:18.461Z,95578.36
2019-02-21T02:10:44.793Z,95583.11
2019-02-21T02:13:23.767Z,95576.83
2019-02-21T02:15:37.449Z,95578.59
2019-02-21T02:18:03.787Z,95575.19
2019-02-21T02:20:30.167Z,95580.05
2019-02-21T02:22:56.503Z,95576.45
2019-02-21T02:25:22.854Z,95583.05
2019-02-21T02:27:49.267Z,95578.63
2019-02-21T02:30:15.745Z,95585.23
2019-02-21T02:32:42.112Z,95589.08
2019-02-21T02:35:08.440Z,95586.31
2019-02-21T02:37:34.809Z,95581.53
2019-02-21T02:40:01.144Z,95575.10
2019-02-21T02:42:27.514Z,95580.50
2019-02-21T02:44:53.886Z,95578.64
2019-02-21T02:47:20.207Z,95583.08
2019-02-21T02:49:46.596Z,95581.96
2019-02-21T02:52:13.053Z,95594.45
2019-02-21T02:54:39.385Z,95587.36
2019-02-21T02:57:05.792Z,95588.53
2019-02-21T02:59:40.277Z,95586.70
2019-02-21T03:01:58.435Z,95586.78
2019-02-21T03:04:24.789Z,95586.22
2019-02-21T03:06:51.128Z,95593.94
2019-02-21T03:09:17.506Z,95602.40
2019-02-21T03:11:43.830Z,95604.52
2019-02-21T03:14:10.201Z,95600.20
2019-02-21T03:16:36.528Z,95601.94
2019-02-21T03:19:02.939Z,95612.70
2019-02-21T03:21:29.369Z,95611.66
2019-02-21T03:23:55.700Z,95609.72
2019-02-21T03:26:22.126Z,95617.27
2019-02-21T03:28:48.659Z,95625.45
2019-02-21T03:31:15.013Z,95627.28
2019-02-21T03:33:41.348Z,95631.59
2019-02-21T03:36:07.681Z,95636.29
2019-02-21T03:38:35.378Z,95640.15
2019-02-21T03:41:00.399Z,95640.41
2019-02-21T03:43:26.782Z,95641.52
2019-02-21T03:45:53.117Z,95641.81
2019-02-21T03:48:19.519Z,95653.98
2019-02-21T03:50:45.856Z,95663.58
2019-02-21T03:53:12.182Z,95662.66
2019-02-21T03:55:38.526Z,95651.42
2019-02-21T03:58:04.878Z,95651.08
2019-02-21T04:00:31.218Z,95653.19
2019-02-21T04:02:57.543Z,95661.00
2019-02-21T04:05:23.863Z,95670.09
2019-02-21T04:07:50.235Z,95673.47
2019-02-21T04:10:16.565Z,95678.79
2019-02-21T04:12:42.918Z,95669.45
2019-02-21T04:15:09.265Z,95670.74
2019-02-21T04:17:35.590Z,95681.38
2019-02-21T04:20:01.917Z,95687.41
2019-02-21T04:22:28.223Z,95685.63
2019-02-21T04:24:54.554Z,95685.42
2019-02-21T04:27:20.887Z,95689.63
2019-02-21T04:29:47.247Z,95693.29
2019-02-21T04:32:16.913Z,95694.70
2019-02-21T04:34:39.916Z,95697.16
2019-02-21T04:37:06.250Z,95698.10
2019-02-21T04:39:32.577Z,95693.03
2019-02-21T04:41:58.947Z,95699.64
2019-02-21T04:44:25.271Z,95700.35
2019-02-21T04:46:51.666Z,95699.89
2019-02-21T04:49:18.043Z,95707.33
2019-02-21T04:51:44.418Z,95707.58
2019-02-21T04:54:10.743Z,95704.09
2019-02-21T04:56:37.131Z,95715.11
2019-02-21T04:59:06.517Z,95711.95
2019-02-21T05:01:30.075Z,95712.78
2019-02-21T05:03:56.407Z,95710.95
2019-02-21T05:06:22.746Z,95709.66
2019-02-21T05:08:49.074Z,95706.59
2019-02-21T05:11:15.477Z,95704.75
2019-02-21T05:13:41.843Z,95705.22
2019-02-21T05:16:08.167Z,95705.67
2019-02-21T05:18:34.552Z,95704.91
2019-02-21T05:21:00.900Z,95709.98
2019-02-21T05:23:27.230Z,95713.30
2019-02-21T05:25:53.561Z,95720.20
2019-02-21T05:28:19.892Z,95712.27
2019-02-21T05:30:46.268Z,95720.92
2019-02-21T05:33:12.670Z,95727.06
2019-02-21T05:35:38.941Z,95731.27
2019-02-21T05:38:07.684Z,95731.73
2019-02-21T05:40:31.643Z,95725.66
2019-02-21T05:42:58.066Z,95735.88
2019-02-21T05:45:24.442Z,95742.12
2019-02-21T05:47:50.838Z,95750.52
2019-02-21T05:50:17.117Z,95747.47
2019-02-21T05:52:43.453Z,95754.96
2019-02-21T05:55:09.824Z,95751.97
2019-02-21T05:57:36.202Z,95760.41
2019-02-21T06:00:02.586Z,95767.02
2019-02-21T06:02:28.924Z,95774.72
2019-02-21T06:04:55.271Z,95770.52
2019-02-21T06:07:21.640Z,95773.34
2019-02-21T06:09:47.954Z,95781.70
2019-02-21T06:12:14.419Z,95776.80
2019-02-21T06:14:40.798Z,95780.33
2019-02-21T06:17:07.152Z,95786.86
2019-02-21T06:19:33.490Z,95776.95
2019-02-21T06:22:10.187Z,95783.19
2019-02-21T06:24:27.337Z,95792.80
2019-02-21T06:26:53.699Z,95802.41
2019-02-21T06:29:22.437Z,95804.82
2019-02-21T06:31:47.161Z,95812.19
2019-02-21T06:34:13.484Z,95807.23
2019-02-21T06:36:39.812Z,95814.01
2019-02-21T06:39:06.158Z,95815.09
2019-02-21T06:41:32.528Z,95808.92
2019-02-21T06:43:58.909Z,95809.59
2019-02-21T06:46:25.235Z,95812.80
2019-02-21T06:48:51.759Z,95818.97
2019-02-21T06:51:17.957Z,95823.11
2019-02-21T06:53:44.449Z,95825.43
2019-02-21T06:56:10.826Z,95830.25
2019-02-21T06:58:37.151Z,95841.94
2019-02-21T07:01:03.487Z,95840.25
2019-02-21T07:03:29.851Z,95840.47
2019-02-21T07:05:56.189Z,95838.50
2019-02-21T07:08:25.100Z,95844.03
2019-02-21T07:10:49.071Z,95844.03
2019-02-21T07:13:26.168Z,95841.27
2019-02-21T07:15:41.769Z,95845.11
2019-02-21T07:18:08.079Z,95849.42
2019-02-21T07:20:34.432Z,95851.78
2019-02-21T07:23:00.764Z,95852.46
2019-02-21T07:25:27.118Z,95849.91
2019-02-21T07:27:53.740Z,95858.64
2019-02-21T07:30:23.045Z,95858.67
2019-02-21T07:32:46.489Z,95858.20
2019-02-21T07:35:12.816Z,95859.36
2019-02-21T07:37:39.154Z,95860.17
2019-02-21T07:40:05.489Z,95862.92
2019-02-21T07:42:31.952Z,95862.41
2019-02-21T07:44:59.706Z,95865.77
2019-02-21T07:47:24.698Z,95863.52
2019-02-21T07:49:51.084Z,95866.14
2019-02-21T07:52:17.902Z,95868.17
2019-02-21T07:54:44.332Z,95870.22
2019-02-21T07:57:10.673Z,95871.13
2019-02-21T07:59:37.005Z,95868.73
2019-02-21T08:02:03.400Z,95865.07
2019-02-21T08:04:29.728Z,95870.09
2019-02-21T08:06:56.060Z,95873.60
2019-02-21T08:09:22.410Z,95877.04
2019-02-21T08:11:48.849Z,95875.17
2019-02-21T08:14:16.183Z,95875.34
2019-02-21T08:16:41.585Z,95873.59
2019-02-21T08:19:08.001Z,95867.67
2019-02-21T08:21:34.445Z,95871.63
2019-02-21T08:24:00.680Z,95872.91
2019-02-21T08:26:27.096Z,95873.30
2019-02-21T08:28:53.478Z,95872.06
2019-02-21T08:31:19.867Z,95876.42
2019-02-21T08:33:57.666Z,95877.11
2019-02-21T08:36:12.679Z,95874.67
2019-02-21T08:38:39.030Z,95870.20
2019-02-21T08:41:05.376Z,95873.53
2019-02-21T08:43:31.839Z,95871.47
2019-02-21T08:45:58.161Z,95881.96
2019-02-21T08:48:24.474Z,95877.05
2019-02-21T08:50:50.830Z,95883.51
2019-02-21T08:53:17.218Z,95885.55
2019-02-21T08:55:43.545Z,95883.95
2019-02-21T08:58:10.048Z,95886.39
2019-02-21T09:00:36.368Z,95889.06
2019-02-21T09:03:02.698Z,95892.23
2019-02-21T09:05:29.049Z,95890.50
2019-02-21T09:07:55.391Z,95882.23
2019-02-21T09:10:21.739Z,95884.48
2019-02-21T09:12:48.760Z,95886.76
2019-02-21T09:15:14.479Z,95886.02
2019-02-21T09:17:40.893Z,95887.55
2019-02-21T09:20:07.244Z,95887.59
2019-02-21T09:22:34.778Z,95886.11
2019-02-21T09:25:02.702Z,95888.19
2019-02-21T09:27:27.543Z,95890.73
2019-02-21T09:29:54.075Z,95885.66
2019-02-21T09:32:20.427Z,95882.96
2019-02-21T09:34:46.762Z,95883.89
2019-02-21T09:37:13.128Z,95883.34
2019-02-21T09:39:39.461Z,95880.60
2019-02-21T09:42:05.795Z,95877.13
2019-02-21T09:44:32.308Z,95878.48
2019-02-21T09:46:58.820Z,95875.06
2019-02-21T09:49:25.231Z,95870.20
2019-02-21T09:51:51.581Z,95871.17
2019-02-21T09:54:19.088Z,95868.82
2019-02-21T09:56:52.323Z,95862.52
2019-02-21T09:59:10.691Z,95861.52
2019-02-21T10:01:37.020Z,95860.14
2019-02-21T10:04:03.352Z,95861.52
2019-02-21T10:06:29.697Z,95868.97
2019-02-21T10:08:56.163Z,95869.09
2019-02-21T10:11:22.530Z,95866.40
2019-02-21T10:13:48.868Z,95863.95
2019-02-21T10:16:15.220Z,95859.62
2019-02-21T10:18:41.558Z,95861.05
2019-02-21T10:21:08.326Z,95856.57
2019-02-21T10:23:34.773Z,95855.12
2019-02-21T10:26:01.126Z,95854.00
2019-02-21T10:28:27.532Z,95848.81
2019-02-21T10:30:54.154Z,95849.88
2019-02-21T10:33:20.490Z,95846.31
2019-02-21T10:35:46.824Z,95836.22
2019-02-21T10:38:13.197Z,95842.28
2019-02-21T10:40:39.526Z,95837.03
2019-02-21T10:43:05.862Z,95830.94
2019-02-21T10:45:32.256Z,95833.08
2019-02-21T10:47:58.590Z,95828.23
2019-02-21T10:50:25.041Z,95816.44
2019-02-21T10:52:51.565Z,95814.36
2019-02-21T10:55:17.942Z,95812.70
2019-02-21T10:57:45.537Z,95808.22
2019-02-21T11:00:10.689Z,95803.30
2019-02-21T11:02:37.358Z,95795.42
2019-02-21T11:05:03.700Z,95791.28
2019-02-21T11:07:30.066Z,95786.63
2019-02-21T11:09:56.423Z,95787.68
2019-02-21T11:12:22.766Z,95776.29
2019-02-21T11:14:49.097Z,95778.42
2019-02-21T11:17:15.431Z,95770.88
2019-02-21T11:19:41.779Z,95761.69
2019-02-21T11:22:08.341Z,95763.12
2019-02-21T11:24:34.669Z,95759.94
2019-02-21T11:27:01.003Z,95759.44
2019-02-21T11:29:27.357Z,95757.36
2019-02-21T11:31:53.744Z,95753.84
2019-02-21T11:34:20.116Z,95746.09
2019-02-21T11:36:46.566Z,95744.30
2019-02-21T11:39:12.917Z,95747.25
2019-02-21T11:41:39.265Z,95745.12
2019-02-21T11:44:05.727Z,95746.19
2019-02-21T11:46:32.102Z,95743.23
2019-02-21T11:48:58.728Z,95731.64
2019-02-21T11:51:25.114Z,95731.61
2019-02-21T11:53:51.444Z,95719.41
2019-02-21T11:56:17.787Z,95718.95
2019-02-21T11:58:45.262Z,95716.37
2019-02-21T12:01:11.595Z,95715.63
2019-02-21T12:03:37.935Z,95701.28
2019-02-21T12:06:04.269Z,95704.23
2019-02-21T12:08:30.749Z,95696.15
2019-02-21T12:10:57.079Z,95687.10
2019-02-21T12:13:23.509Z,95688.59
2019-02-21T12:15:49.812Z,95689.78
2019-02-21T12:18:17.174Z,95692.27
2019-02-21T12:20:43.552Z,95695.64
2019-02-21T12:23:09.955Z,95691.77
2019-02-21T12:28:20.805Z,95691.77
2019-02-21T12:30:47.155Z,95686.92
2019-02-21T12:33:13.509Z,95689.38
2019-02-21T12:35:39.864Z,95688.90
2019-02-21T12:38:06.267Z,95685.55
2019-02-21T12:40:32.624Z,95682.77
2019-02-21T12:42:58.973Z,95688.08
2019-02-21T12:45:25.359Z,95691.48
2019-02-21T12:47:53.885Z,95695.82
2019-02-21T12:50:18.075Z,95686.13
2019-02-21T12:52:45.437Z,95691.17
2019-02-21T12:55:11.816Z,95690.00
2019-02-21T12:57:38.192Z,95691.54
2019-02-21T13:00:05.637Z,95697.76
2019-02-21T13:02:31.975Z,95688.35
2019-02-21T13:04:58.397Z,95687.42
2019-02-21T13:07:24.740Z,95678.15
2019-02-21T13:09:52.003Z,95682.11
2019-02-21T13:12:18.504Z,95677.77
2019-02-21T13:14:44.914Z,95679.77
2019-02-21T13:17:11.277Z,95674.04
2019-02-21T13:19:37.622Z,95667.06
2019-02-21T13:22:03.988Z,95676.72
2019-02-21T13:24:30.316Z,95673.53
2019-02-21T13:26:56.699Z,95679.38
2019-02-21T13:29:23.063Z,95672.83
2019-02-21T13:31:49.567Z,95672.23
2019-02-21T13:34:15.943Z,95673.07
2019-02-21T13:36:42.355Z,95666.70
2019-02-21T13:39:08.801Z,95664.77
2019-02-21T13:41:35.120Z,95662.05
2019-02-21T13:44:01.505Z,95662.19
2019-02-21T13:46:36.710Z,95662.36
2019-02-21T13:48:56.382Z,95665.70
2019-02-21T13:51:20.752Z,95664.41
2019-02-21T13:53:47.191Z,95665.01
2019-02-21T13:56:13.596Z,95659.23
2019-02-21T13:58:39.980Z,95661.68
2019-02-21T14:01:06.359Z,95662.41
2019-02-21T14:03:32.736Z,95659.83
2019-02-21T14:06:03.567Z,95661.47
2019-02-21T14:08:27.733Z,95662.09
2019-02-21T14:10:54.138Z,95659.28
2019-02-21T14:13:20.532Z,95657.80
2019-02-21T14:15:46.878Z,95659.59
2019-02-21T14:18:13.237Z,95649.13
2019-02-21T14:20:45.302Z,95654.52
2019-02-21T14:23:05.949Z,95651.61
2019-02-21T14:25:40.262Z,95648.52
2019-02-21T14:27:58.764Z,95644.28
2019-02-21T14:30:25.164Z,95642.30
2019-02-21T14:32:51.544Z,95640.27
2019-02-21T14:35:17.915Z,95633.45
2019-02-21T14:37:44.314Z,95634.28
2019-02-21T14:40:10.817Z,95636.16
2019-02-21T14:42:37.185Z,95636.46
2019-02-21T14:45:03.579Z,95635.11
2019-02-21T14:47:29.916Z,95629.70
2019-02-21T14:49:56.273Z,95629.24
2019-02-21T14:52:22.617Z,95631.00
2019-02-21T14:54:48.996Z,95632.52
2019-02-21T14:57:15.569Z,95635.23
2019-02-21T14:59:44.547Z,95635.11
2019-02-21T15:02:08.065Z,95631.83
2019-02-21T15:04:34.462Z,95636.40
2019-02-21T15:07:00.799Z,95630.53
2019-02-21T15:09:27.190Z,95629.70
2019-02-21T15:11:53.542Z,95612.74
2019-02-21T15:14:19.865Z,95630.77
2019-02-21T15:16:46.222Z,95626.52
2019-02-21T15:19:12.605Z,95626.30
2019-02-21T15:21:39.145Z,95621.59
2019-02-21T15:24:05.579Z,95622.42
2019-02-21T15:26:31.957Z,95624.54
2019-02-21T15:29:00.086Z,95630.17
2019-02-21T15:31:24.669Z,95624.34
2019-02-21T15:33:51.052Z,95622.84
2019-02-21T15:36:17.441Z,95626.43
2019-02-21T15:38:43.830Z,95629.11
2019-02-21T15:41:10.158Z,95628.02
2019-02-21T15:43:36.530Z,95628.11
2019-02-21T15:46:02.907Z,95625.66
2019-02-21T15:48:29.291Z,95636.36
2019-02-21T15:50:55.623Z,95636.06
2019-02-21T15:53:22.031Z,95630.59
2019-02-21T15:55:48.416Z,95628.38
2019-02-21T15:58:14.779Z,95631.59
2019-02-21T16:00:41.100Z,95627.48
2019-02-21T16:03:07.457Z,95630.30
2019-02-21T16:05:33.787Z,95628.84
2019-02-21T16:08:00.115Z,95629.41
2019-02-21T16:10:26.477Z,95629.17
2019-02-21T16:12:53.276Z,95630.83
2019-02-21T16:15:19.196Z,95629.30
2019-02-21T16:17:45.526Z,95637.27
2019-02-21T16:20:13.629Z,95635.48
2019-02-21T16:22:40.000Z,95636.92
2019-02-21T16:25:06.448Z,95640.14
2019-02-21T16:27:32.710Z,95643.50
2019-02-21T16:29:59.088Z,95645.58
2019-02-21T16:32:26.501Z,95652.77
2019-02-21T16:34:52.833Z,95650.30
2019-02-21T16:37:19.163Z,95662.96
2019-02-21T16:39:45.519Z,95662.36
2019-02-21T16:42:11.894Z,95661.55
2019-02-21T16:44:38.244Z,95660.24
2019-02-21T16:47:05.731Z,95674.81
2019-02-21T16:49:30.930Z,95671.08
2019-02-21T16:51:58.409Z,95674.45
2019-02-21T16:54:23.624Z,95680.42
2019-02-21T16:56:50.003Z,95678.77
2019-02-21T16:59:16.375Z,95687.13
2019-02-21T17:01:42.699Z,95683.70
2019-02-21T17:04:09.222Z,95682.50
2019-02-21T17:06:35.555Z,95681.67
2019-02-21T17:09:01.902Z,95680.00
2019-02-21T17:11:28.217Z,95684.23
2019-02-21T17:13:54.555Z,95686.23
2019-02-21T17:16:20.896Z,95687.11
2019-02-21T17:18:47.228Z,95688.92
2019-02-21T17:21:13.643Z,95690.45
2019-02-21T17:23:39.973Z,95690.53
2019-02-21T17:26:06.260Z,95692.05
2019-02-21T17:28:32.655Z,95687.85
2019-02-21T17:30:58.982Z,95687.12
2019-02-21T17:33:25.313Z,95687.58
2019-02-21T17:35:51.819Z,95690.75
2019-02-21T17:38:18.219Z,95693.42
2019-02-21T17:40:44.577Z,95685.90
2019-02-21T17:43:10.842Z,95693.18
2019-02-21T17:45:37.232Z,95694.14
2019-02-21T17:48:03.605Z,95696.34
2019-02-21T17:50:29.908Z,95689.28
2019-02-21T17:52:56.266Z,95695.89
2019-02-21T17:55:22.771Z,95689.75
2019-02-21T17:57:49.099Z,95695.59
2019-02-21T18:00:17.254Z,95690.89
2019-02-21T18:02:41.890Z,95690.43
2019-02-21T18:05:08.222Z,95683.37
2019-02-21T18:07:36.691Z,95689.30
2019-02-21T18:10:00.977Z,95687.40
2019-02-21T18:12:27.364Z,95684.58
2019-02-21T18:14:53.740Z,95684.33
2019-02-21T18:17:20.067Z,95688.20
2019-02-21T18:19:46.410Z,95679.48
2019-02-21T18:22:12.740Z,95680.41
2019-02-21T18:24:39.121Z,95675.00
2019-02-21T18:27:05.470Z,95673.34
2019-02-21T18:29:31.792Z,95679.91
2019-02-21T18:31:58.151Z,95678.25
2019-02-21T18:34:24.672Z,95681.42
2019-02-21T18:36:51.007Z,95678.10
2019-02-21T18:39:17.378Z,95677.30
2019-02-21T18:41:43.718Z,95679.73
2019-02-21T18:44:10.238Z,95683.94
2019-02-21T18:46:36.604Z,95681.48
2019-02-21T18:49:02.941Z,95679.95
2019-02-21T18:51:29.278Z,95678.72
2019-02-21T18:53:55.769Z,95679.17
2019-02-21T18:56:22.100Z,95680.47
2019-02-21T18:58:48.595Z,95680.27
2019-02-21T19:01:14.946Z,95680.48
2019-02-21T19:03:41.336Z,95684.11
2019-02-21T19:06:07.665Z,95681.13
2019-02-21T19:08:34.009Z,95680.25
2019-02-21T19:11:00.340Z,95680.80
2019-02-21T19:13:28.676Z,95680.64
2019-02-21T19:15:53.057Z,95679.53
2019-02-21T19:18:19.448Z,95681.61
2019-02-21T19:20:45.786Z,95676.08
2019-02-21T19:23:12.189Z,95676.87
2019-02-21T19:25:38.565Z,95675.33
2019-02-21T19:28:04.947Z,95673.42
2019-02-21T19:30:31.312Z,95676.54
2019-02-21T19:32:57.635Z,95675.38
2019-02-21T19:35:23.979Z,95674.38
2019-02-21T19:37:50.317Z,95678.23
2019-02-21T19:40:19.064Z,95679.73
2019-02-21T19:42:45.417Z,95676.82
2019-02-21T19:45:11.744Z,95679.23
2019-02-21T19:47:38.121Z,95688.33
2019-02-21T19:50:04.442Z,95687.70
2019-02-21T19:52:30.769Z,95693.80
2019-02-21T19:54:57.145Z,95688.48
2019-02-21T19:57:23.435Z,95687.66
2019-02-21T19:59:49.764Z,95689.23
2019-02-21T20:02:16.139Z,95686.66
2019-02-21T20:04:42.589Z,95684.28
2019-02-21T20:07:08.920Z,95686.27
2019-02-21T20:09:35.253Z,95683.97
2019-02-21T20:12:01.695Z,95682.57
2019-02-21T20:14:28.060Z,95677.08
2019-02-21T20:16:54.571Z,95674.13
2019-02-21T20:19:20.947Z,95668.27
2019-02-21T20:21:47.323Z,95674.08
2019-02-21T20:24:13.806Z,95669.64
2019-02-21T20:26:40.130Z,95667.55
2019-02-21T20:29:06.493Z,95667.35
2019-02-21T20:31:32.820Z,95663.06
2019-02-21T20:33:59.157Z,95667.84
2019-02-21T20:36:25.503Z,95661.03
2019-02-21T20:38:51.884Z,95664.55
2019-02-21T20:41:18.230Z,95663.80
2019-02-21T20:43:44.601Z,95657.48
2019-02-21T20:46:10.936Z,95656.28
2019-02-21T20:48:37.285Z,95653.83
2019-02-21T20:51:03.618Z,95654.36
2019-02-21T20:53:29.964Z,95654.48
2019-02-21T20:55:56.332Z,95649.98
2019-02-21T20:58:22.670Z,95646.59
2019-02-21T21:00:49.057Z,95644.92
2019-02-21T21:03:15.452Z,95641.52
2019-02-21T21:05:41.781Z,95636.58
2019-02-21T21:08:08.103Z,95635.75
2019-02-21T21:10:34.441Z,95633.03
2019-02-21T21:13:00.769Z,95627.14
2019-02-21T21:15:27.181Z,95626.80
2019-02-21T21:17:53.528Z,95623.59
2019-02-21T21:20:19.942Z,95621.36
2019-02-21T21:22:46.230Z,95616.70
2019-02-21T21:25:12.553Z,95613.76
2019-02-21T21:27:38.978Z,95622.59
2019-02-21T21:30:05.315Z,95624.25
2019-02-21T21:32:31.717Z,95621.95
2019-02-21T21:34:58.090Z,95624.07
2019-02-21T21:37:24.431Z,95621.95
2019-02-21T21:39:50.820Z,95615.64
2019-02-21T21:42:17.183Z,95614.89
2019-02-21T21:44:43.580Z,95620.61
2019-02-21T21:47:09.885Z,95619.41
2019-02-21T21:49:36.218Z,95617.41
2019-02-21T21:52:02.608Z,95617.03
2019-02-21T21:54:28.939Z,95628.26
2019-02-21T21:56:55.315Z,95622.28
2019-02-21T21:59:21.647Z,95624.03
2019-02-21T22:01:48.034Z,95624.11
2019-02-21T22:04:14.356Z,95620.36
2019-02-21T22:06:40.686Z,95622.22
2019-02-21T22:09:07.015Z,95620.19
2019-02-21T22:11:33.375Z,95618.84
2019-02-21T22:13:59.770Z,95624.81
2019-02-21T22:16:26.126Z,95621.86
2019-02-21T22:18:52.553Z,95624.06
2019-02-21T22:21:18.857Z,95623.72
2019-02-21T22:23:45.489Z,95617.80
2019-02-21T22:26:11.904Z,95616.16
2019-02-21T22:28:38.260Z,95617.98
2019-02-21T22:31:04.790Z,95619.73
2019-02-21T22:33:31.191Z,95622.04
2019-02-21T22:35:57.555Z,95619.47
2019-02-21T22:38:23.958Z,95628.58
2019-02-21T22:40:50.425Z,95626.84
2019-02-21T22:43:16.818Z,95627.38
2019-02-21T22:45:43.183Z,95635.92
2019-02-21T22:48:09.526Z,95633.62
2019-02-21T22:50:36.080Z,95628.59
2019-02-21T22:53:02.391Z,95628.13
2019-02-21T22:55:28.765Z,95624.81
2019-02-21T22:57:55.181Z,95620.23
2019-02-21T23:00:21.561Z,95624.09
2019-02-21T23:02:47.974Z,95619.41
2019-02-21T23:05:14.442Z,95619.97
2019-02-21T23:07:40.841Z,95617.30
2019-02-21T23:10:07.209Z,95617.67
2019-02-21T23:12:33.631Z,95617.67
2019-02-21T23:15:00.032Z,95610.53
2019-02-21T23:17:26.406Z,95612.53
2019-02-21T23:19:52.930Z,95607.59
2019-02-21T23:22:19.313Z,95609.33
2019-02-21T23:24:45.703Z,95608.04
2019-02-21T23:27:12.052Z,95607.86
2019-02-21T23:29:38.468Z,95605.66
2019-02-21T23:32:04.761Z,95604.11
2019-02-21T23:34:31.101Z,95600.71
2019-02-21T23:36:57.447Z,95598.14
2019-02-21T23:39:23.824Z,95597.31
2019-02-21T23:41:50.141Z,95595.87
2019-02-21T23:44:16.499Z,95591.27
2019-02-21T23:46:42.844Z,95587.87
2019-02-21T23:49:09.219Z,95577.06
2019-02-21T23:51:35.599Z,95578.05
2019-02-21T23:54:03.305Z,95576.23
2019-02-21T23:56:28.283Z,95583.11
2019-02-21T23:58:54.661Z,95578.23
